Big Bear Station Historical Data
Daily Summary for October 12, 2017 Units:  English    Metric   Both
« Previous Day
Next Day »
Daily Weekly Monthly Yearly Custom
  High: Low: Average:
Temperature: 66.2 °F 34.2 °F 47.6 °F
Dew Point: 31.2 °F 11.2 °F 20.1 °F
Humidity: 65 % 15 % 36 %
Wind Speed: 5.3 mph 0.0 mph 1.1 mph
Wind Gust: -999.0 mph - -
Wind:- - WNW
Pressure: 30.18 in 30.09 in -
Precipitation: 0.00 in    
Historical Graphs
 
 
Tabular Data for October 12, 2017
Time Temperature Dew Point Pressure Wind Wind Speed Wind Gust Humidity Rainfall Rate (Hourly)
00:08 39.2 °F 20.6 °F 30.10 in Calm   -999.0 mph 47 % 0 in
00:24 39.6 °F 17.8 °F 30.10 in Calm   -999.0 mph 41 % 0 in
00:39 39.7 °F 15.5 °F 30.10 in Calm   -999.0 mph 37 % 0 in
00:54 40.1 °F 15.3 °F 30.10 in Calm   -999.0 mph 36 % 0 in
01:09 39.7 °F 14.3 °F 30.10 in Calm   -999.0 mph 35 % 0 in
01:24 40.3 °F 13.4 °F 30.10 in Calm   -999.0 mph 33 % 0 in
01:40 40.3 °F 13.4 °F 30.10 in Calm   -999.0 mph 33 % 0 in
01:55 40.1 °F 14.0 °F 30.10 in Calm   -999.0 mph 34 % 0 in
02:10 39.7 °F 12.9 °F 30.10 in Calm   -999.0 mph 33 % 0 in
02:25 39.6 °F 12.1 °F 30.10 in Calm   -999.0 mph 32 % 0 in
02:40 39.6 °F 16.7 °F 30.10 in Calm   -999.0 mph 39 % 0 in
02:56 39.4 °F 13.3 °F 30.10 in Calm   -999.0 mph 34 % 0 in
03:11 39.4 °F 12.7 °F 30.10 in Calm   -999.0 mph 33 % 0 in
03:26 39.0 °F 12.3 °F 30.10 in Calm   -999.0 mph 33 % 0 in
03:41 39.4 °F 12.7 °F 30.10 in Calm   -999.0 mph 33 % 0 in
03:56 38.5 °F 11.2 °F 30.09 in Calm   -999.0 mph 32 % 0 in
04:12 38.1 °F 15.3 °F 30.09 in Calm   -999.0 mph 39 % 0 in
04:27 37.2 °F 19.8 °F 30.09 in Calm   -999.0 mph 49 % 0 in
04:42 37.6 °F 21.6 °F 30.10 in Calm   -999.0 mph 52 % 0 in
04:57 37.4 °F 16.4 °F 30.10 in Calm   -999.0 mph 42 % 0 in
05:13 37.2 °F 19.8 °F 30.10 in Calm   -999.0 mph 49 % 0 in
05:28 36.7 °F 22.9 °F 30.10 in Calm   -999.0 mph 57 % 0 in
05:43 36.3 °F 20.3 °F 30.10 in Calm   -999.0 mph 52 % 0 in
05:58 36.3 °F 22.1 °F 30.11 in Calm   -999.0 mph 56 % 0 in
06:13 36.0 °F 20.1 °F 30.11 in Calm   -999.0 mph 52 % 0 in
06:29 35.4 °F 18.6 °F 30.11 in Calm   -999.0 mph 50 % 0 in
06:44 34.9 °F 14.6 °F 30.12 in Calm   -999.0 mph 43 % 0 in
06:59 34.3 °F 11.9 °F 30.12 in Calm   -999.0 mph 39 % 0 in
07:14 34.5 °F 15.8 °F 30.12 in Calm   -999.0 mph 46 % 0 in
07:29 34.2 °F 14.0 °F 30.12 in Calm   -999.0 mph 43 % 0 in
07:45 35.4 °F 16.7 °F 30.13 in Calm   -999.0 mph 46 % 0 in
08:00 36.0 °F 18.7 °F 30.13 in Calm   -999.0 mph 49 % 0 in
08:15 37.2 °F 21.2 °F 30.13 in Calm   -999.0 mph 52 % 0 in
08:30 37.2 °F 21.6 °F 30.13 in Calm   -999.0 mph 53 % 0 in
08:45 37.9 °F 22.7 °F 30.14 in Calm   -999.0 mph 54 % 0 in
09:01 40.1 °F 22.9 °F 30.14 in Calm   -999.0 mph 50 % 0 in
09:16 41.4 °F 26.4 °F 30.14 in Calm   -999.0 mph 55 % 0 in
09:32 45.9 °F 22.9 °F 30.14 in Calm   -999.0 mph 40 % 0 in
09:47 48.6 °F 19.3 °F 30.14 in Calm   -999.0 mph 31 % 0 in
10:03 52.9 °F 15.0 °F 30.14 in NNW 1.1 mph -999.0 mph 22 % 0 in
10:18 55.2 °F 17.0 °F 30.14 in NNW 2.7 mph -999.0 mph 22 % 0 in
10:33 59.2 °F 15.7 °F 30.14 in North 3.7 mph -999.0 mph 18 % 0 in
10:48 60.4 °F 17.9 °F 30.14 in North 4.2 mph -999.0 mph 19 % 0 in
11:04 61.5 °F 20.0 °F 30.14 in NW 4.2 mph -999.0 mph 20 % 0 in
11:19 62.4 °F 20.8 °F 30.14 in NNW 4.7 mph -999.0 mph 20 % 0 in
11:34 63.3 °F 21.5 °F 30.14 in North 3.7 mph -999.0 mph 20 % 0 in
11:50 63.3 °F 22.7 °F 30.14 in NW 4.7 mph -999.0 mph 21 % 0 in
12:05 64.6 °F 24.9 °F 30.14 in WNW 4.2 mph -999.0 mph 22 % 0 in
12:20 64.9 °F 21.6 °F 30.14 in WNW 4.2 mph -999.0 mph 19 % 0 in
12:36 64.6 °F 20.1 °F 30.14 in East 3.2 mph -999.0 mph 18 % 0 in
12:51 64.9 °F 21.6 °F 30.14 in WNW 5.3 mph -999.0 mph 19 % 0 in
13:06 65.7 °F 21.0 °F 30.14 in NE 4.7 mph -999.0 mph 18 % 0 in
13:22 65.5 °F 20.8 °F 30.13 in NNW 5.3 mph -999.0 mph 18 % 0 in
13:37 66.2 °F 18.7 °F 30.13 in NNW 1.7 mph -999.0 mph 16 % 0 in
13:52 65.5 °F 19.5 °F 30.13 in NW 4.2 mph -999.0 mph 17 % 0 in
14:08 64.9 °F 16.1 °F 30.13 in North 3.2 mph -999.0 mph 15 % 0 in
14:23 63.7 °F 20.6 °F 30.13 in NW 3.2 mph -999.0 mph 19 % 0 in
14:38 64.0 °F 18.3 °F 30.13 in NNW 5.3 mph -999.0 mph 17 % 0 in
14:54 63.3 °F 20.3 °F 30.13 in NE 3.2 mph -999.0 mph 19 % 0 in
15:09 63.3 °F 24.8 °F 30.13 in North 4.2 mph -999.0 mph 23 % 0 in
15:24 62.4 °F 20.8 °F 30.13 in WNW 4.2 mph -999.0 mph 20 % 0 in
15:39 62.2 °F 20.6 °F 30.13 in WNW 4.2 mph -999.0 mph 20 % 0 in
15:54 61.0 °F 20.8 °F 30.13 in WNW 3.7 mph -999.0 mph 21 % 0 in
16:10 60.6 °F 23.6 °F 30.13 in NW 2.7 mph -999.0 mph 24 % 0 in
16:25 60.1 °F 18.9 °F 30.13 in NW 2.7 mph -999.0 mph 20 % 0 in
16:40 59.7 °F 19.7 °F 30.13 in NW 3.7 mph -999.0 mph 21 % 0 in
16:56 59.2 °F 22.4 °F 30.13 in WNW 3.2 mph -999.0 mph 24 % 0 in
17:11 58.3 °F 28.6 °F 30.13 in NW 2.2 mph -999.0 mph 32 % 0 in
17:26 57.7 °F 30.9 °F 30.13 in Calm   -999.0 mph 36 % 0 in
17:41 56.5 °F 31.2 °F 30.13 in Calm   -999.0 mph 38 % 0 in
17:56 55.2 °F 28.7 °F 30.13 in Calm   -999.0 mph 36 % 0 in
18:12 54.0 °F 29.0 °F 30.13 in Calm   -999.0 mph 38 % 0 in
18:27 52.3 °F 28.1 °F 30.13 in Calm   -999.0 mph 39 % 0 in
18:42 50.7 °F 26.6 °F 30.14 in Calm   -999.0 mph 39 % 0 in
18:57 49.5 °F 23.0 °F 30.15 in Calm   -999.0 mph 35 % 0 in
19:12 48.2 °F 19.0 °F 30.15 in Calm   -999.0 mph 31 % 0 in
19:28 47.1 °F 19.4 °F 30.15 in Calm   -999.0 mph 33 % 0 in
19:43 46.4 °F 18.1 °F 30.16 in Calm   -999.0 mph 32 % 0 in
19:58 45.7 °F 17.5 °F 30.16 in Calm   -999.0 mph 32 % 0 in
20:13 44.8 °F 18.1 °F 30.16 in Calm   -999.0 mph 34 % 0 in
20:28 44.1 °F 18.8 °F 30.16 in Calm   -999.0 mph 36 % 0 in
20:44 43.3 °F 21.2 °F 30.17 in Calm   -999.0 mph 41 % 0 in
20:59 42.4 °F 20.3 °F 30.17 in Calm   -999.0 mph 41 % 0 in
21:14 42.1 °F 22.3 °F 30.17 in Calm   -999.0 mph 45 % 0 in
21:29 41.2 °F 20.9 °F 30.17 in Calm   -999.0 mph 44 % 0 in
21:44 40.8 °F 23.6 °F 30.17 in Calm   -999.0 mph 50 % 0 in
22:00 40.1 °F 23.9 °F 30.18 in Calm   -999.0 mph 52 % 0 in
22:15 39.7 °F 23.5 °F 30.18 in Calm   -999.0 mph 52 % 0 in
22:30 38.8 °F 24.4 °F 30.18 in Calm   -999.0 mph 56 % 0 in
22:45 38.7 °F 26.0 °F 30.18 in Calm   -999.0 mph 60 % 0 in
23:01 38.5 °F 27.0 °F 30.18 in Calm   -999.0 mph 63 % 0 in
23:16 38.3 °F 27.6 °F 30.18 in Calm   -999.0 mph 65 % 0 in
23:31 37.8 °F 25.6 °F 30.18 in Calm   -999.0 mph 61 % 0 in
23:46 37.2 °F 22.9 °F 30.18 in Calm   -999.0 mph 56 % 0 in
Big Bear CA Weather
Compliments of Weather Underground - 1.5 mb